createdAt,value
2023-08-04T00:01:03.429Z,13.20
2023-08-04T00:03:32.426Z,13.80
2023-08-04T00:06:00.737Z,12.90
2023-08-04T00:08:28.978Z,12.70
2023-08-04T00:10:57.156Z,12.30
2023-08-04T00:13:25.424Z,13.60
2023-08-04T00:15:53.972Z,12.40
2023-08-04T00:18:22.249Z,12.50
2023-08-04T00:20:50.532Z,12.10
2023-08-04T00:23:19.095Z,11.50
2023-08-04T00:25:47.309Z,11.40
2023-08-04T00:28:15.463Z,10.40
2023-08-04T00:30:43.835Z,9.60
2023-08-04T00:33:12.091Z,10.80
2023-08-04T00:35:40.482Z,11.50
2023-08-04T00:38:08.617Z,11.60
2023-08-04T00:40:37.802Z,9.60
2023-08-04T00:43:06.175Z,9.30
2023-08-04T00:45:35.614Z,9.00
2023-08-04T00:48:04.407Z,10.00
2023-08-04T00:50:34.091Z,12.10
2023-08-04T00:53:03.409Z,17.30
2023-08-04T00:55:33.459Z,13.40
2023-08-04T00:58:02.067Z,13.60
2023-08-04T01:00:30.354Z,13.20
2023-08-04T01:02:58.667Z,14.10
2023-08-04T01:05:38.322Z,13.10
2023-08-04T01:08:18.399Z,11.90
2023-08-04T01:11:15.087Z,11.50
2023-08-04T01:13:44.672Z,11.00
2023-08-04T01:16:32.953Z,13.20
2023-08-04T01:28:31.889Z,9.80
2023-08-04T01:31:02.053Z,11.30
2023-08-04T01:33:30.979Z,11.00
2023-08-04T01:35:59.460Z,12.40
2023-08-04T01:53:06.337Z,12.50
2023-08-04T01:55:34.476Z,13.30
2023-08-04T01:58:02.687Z,12.90
2023-08-04T02:00:30.861Z,11.80
2023-08-04T02:02:59.023Z,11.30
2023-08-04T02:05:27.309Z,10.20
2023-08-04T02:07:55.544Z,8.30
2023-08-04T02:10:30.116Z,8.80
2023-08-04T02:12:58.294Z,8.90
2023-08-04T02:15:26.526Z,9.40
2023-08-04T02:17:54.732Z,9.90
2023-08-04T02:20:22.998Z,9.60
2023-08-04T02:22:51.738Z,8.50
2023-08-04T02:25:22.107Z,9.90
2023-08-04T02:27:50.606Z,10.20
2023-08-04T02:30:18.836Z,10.20
2023-08-04T02:33:47.952Z,11.70
2023-08-04T02:37:51.222Z,12.20
2023-08-04T02:40:20.732Z,11.40
2023-08-04T02:42:49.159Z,13.20
2023-08-04T02:45:17.396Z,12.30
2023-08-04T02:47:45.578Z,12.80
2023-08-04T02:50:13.883Z,12.30
2023-08-04T02:52:42.181Z,13.20
2023-08-04T02:55:11.532Z,11.90
2023-08-04T02:57:40.064Z,12.40
2023-08-04T03:00:08.543Z,13.50
2023-08-04T03:02:36.920Z,11.80
2023-08-04T03:05:05.561Z,12.80
2023-08-04T03:07:34.118Z,13.00
2023-08-04T03:10:02.319Z,13.10
2023-08-04T03:12:30.578Z,13.70
2023-08-04T03:15:00.451Z,15.20
2023-08-04T03:17:30.298Z,13.20
2023-08-04T03:19:59.565Z,18.20
2023-08-04T03:22:27.793Z,18.20
2023-08-04T03:24:56.072Z,16.20
2023-08-04T03:27:25.054Z,17.90
2023-08-04T03:29:53.306Z,18.90
2023-08-04T03:32:22.378Z,18.60
2023-08-04T03:34:50.725Z,18.90
2023-08-04T03:37:19.194Z,18.50
2023-08-04T03:39:47.455Z,18.50
2023-08-04T03:42:15.956Z,17.50
2023-08-04T03:44:45.010Z,17.50
2023-08-04T03:47:13.396Z,16.80
2023-08-04T03:49:41.955Z,16.80
2023-08-04T03:52:10.270Z,14.80
2023-08-04T03:54:38.525Z,14.20
2023-08-04T03:57:07.654Z,12.50
2023-08-04T03:59:38.551Z,10.90
2023-08-04T04:02:07.299Z,10.60
2023-08-04T04:04:35.691Z,8.70
2023-08-04T04:07:04.003Z,8.20
2023-08-04T04:09:32.217Z,8.60
2023-08-04T04:12:00.568Z,8.80
2023-08-04T04:14:28.737Z,9.30
2023-08-04T04:16:57.351Z,8.10
2023-08-04T04:19:25.489Z,9.40
2023-08-04T04:21:53.677Z,6.00
2023-08-04T04:24:21.821Z,7.30
2023-08-04T04:26:50.101Z,6.20
2023-08-04T04:29:18.974Z,5.50
2023-08-04T04:31:56.404Z,5.90
2023-08-04T04:34:24.632Z,5.50
2023-08-04T04:36:52.955Z,5.70
2023-08-04T04:39:21.158Z,4.70
2023-08-04T04:41:49.511Z,6.20
2023-08-04T04:44:18.065Z,8.00
2023-08-04T04:46:47.019Z,7.10
2023-08-04T04:49:17.667Z,6.70
2023-08-04T04:51:47.302Z,6.40
2023-08-04T04:54:15.720Z,7.40
2023-08-04T04:56:43.954Z,6.90
2023-08-04T04:59:12.185Z,8.10
2023-08-04T05:01:40.522Z,9.20
2023-08-04T05:04:10.348Z,9.20
2023-08-04T05:06:38.751Z,9.30
2023-08-04T05:09:08.259Z,10.60
2023-08-04T05:11:36.484Z,12.20
2023-08-04T05:14:05.834Z,9.70
2023-08-04T05:16:34.189Z,11.00
2023-08-04T05:19:03.463Z,10.40
2023-08-04T05:21:33.951Z,12.40
2023-08-04T05:24:02.477Z,10.30
2023-08-04T05:26:32.711Z,10.80
2023-08-04T05:29:00.982Z,10.60
2023-08-04T05:31:29.313Z,10.00
2023-08-04T05:33:57.534Z,9.70
2023-08-04T05:36:25.862Z,9.60
2023-08-04T05:38:54.441Z,9.90
2023-08-04T05:41:22.756Z,10.10
2023-08-04T05:43:52.719Z,8.80
2023-08-04T05:46:46.223Z,10.00
2023-08-04T05:49:14.681Z,10.30
2023-08-04T05:51:43.115Z,10.00
2023-08-04T05:54:11.418Z,8.10
2023-08-04T05:56:39.661Z,10.80
2023-08-04T05:59:07.819Z,8.20
2023-08-04T06:01:36.181Z,9.50
2023-08-04T06:04:28.317Z,9.00
2023-08-04T06:07:00.598Z,8.60
2023-08-04T06:09:32.670Z,9.00
2023-08-04T06:12:00.950Z,9.60
2023-08-04T06:14:29.454Z,10.90
2023-08-04T06:32:31.340Z,8.90
2023-08-04T06:35:21.803Z,8.60
2023-08-04T06:38:15.280Z,10.10
2023-08-04T06:41:10.702Z,9.30
2023-08-04T06:57:54.305Z,9.40
2023-08-04T07:00:24.284Z,11.10
2023-08-04T07:03:24.931Z,10.80
2023-08-04T07:16:11.092Z,8.30
2023-08-04T07:22:05.019Z,9.30
2023-08-04T07:24:38.359Z,9.40
2023-08-04T07:28:21.645Z,9.00
2023-08-04T07:31:16.278Z,8.70
2023-08-04T07:33:44.756Z,10.00
2023-08-04T07:36:19.055Z,9.60
2023-08-04T07:38:47.807Z,7.70
2023-08-04T07:41:23.259Z,8.80
2023-08-04T07:43:51.883Z,8.50
2023-08-04T07:49:36.684Z,7.70
2023-08-04T07:52:05.785Z,9.50
2023-08-04T07:54:35.393Z,9.40
2023-08-04T07:57:04.461Z,8.30
2023-08-04T07:59:32.771Z,7.80
2023-08-04T08:02:01.098Z,8.50
2023-08-04T08:04:59.084Z,8.40
2023-08-04T08:07:39.636Z,10.00
2023-08-04T08:10:15.269Z,8.70
2023-08-04T08:12:46.790Z,8.00
2023-08-04T08:15:15.161Z,8.70
2023-08-04T08:17:43.378Z,9.00
2023-08-04T08:20:11.957Z,8.60
2023-08-04T08:22:42.368Z,7.90
2023-08-04T08:25:14.049Z,7.80
2023-08-04T08:27:42.422Z,8.10
2023-08-04T08:31:01.932Z,7.30
2023-08-04T08:33:30.384Z,8.00
2023-08-04T08:36:02.913Z,8.50
2023-08-04T08:38:32.646Z,8.70
2023-08-04T08:41:03.146Z,7.80
2023-08-04T08:46:17.137Z,8.60
2023-08-04T08:48:49.469Z,7.90
2023-08-04T08:51:30.730Z,8.00
2023-08-04T08:54:00.067Z,8.30
2023-08-04T08:56:28.531Z,7.50
2023-08-04T08:58:56.815Z,7.70
2023-08-04T09:01:25.286Z,7.90
2023-08-04T09:03:53.680Z,7.20
2023-08-04T09:06:21.931Z,7.70
2023-08-04T09:08:50.223Z,7.20
2023-08-04T09:11:19.214Z,7.40
2023-08-04T09:13:47.975Z,7.20
2023-08-04T09:16:17.081Z,5.60
2023-08-04T09:19:33.612Z,7.30
2023-08-04T09:22:01.993Z,9.30
2023-08-04T09:25:08.901Z,7.40
2023-08-04T09:27:39.729Z,6.50
2023-08-04T09:30:12.484Z,6.10
2023-08-04T09:32:46.264Z,5.70
2023-08-04T09:35:15.895Z,6.50
2023-08-04T09:37:44.640Z,6.50
2023-08-04T09:40:36.454Z,7.10
2023-08-04T09:45:48.663Z,7.40
2023-08-04T09:48:41.854Z,6.60
2023-08-04T09:51:12.946Z,5.70
2023-08-04T09:53:53.577Z,5.90
2023-08-04T09:56:26.411Z,5.20
2023-08-04T09:58:55.199Z,6.80
2023-08-04T10:01:33.488Z,7.10
2023-08-04T10:04:03.399Z,5.40
2023-08-04T10:07:08.271Z,6.10
2023-08-04T10:26:25.774Z,5.70
2023-08-04T10:30:09.782Z,6.10
2023-08-04T10:33:13.250Z,6.10
2023-08-04T10:40:11.589Z,7.30
2023-08-04T10:43:06.670Z,7.00
2023-08-04T10:46:10.899Z,6.60
2023-08-04T10:52:41.917Z,5.50
2023-08-04T10:55:24.782Z,5.80
2023-08-04T10:58:07.551Z,5.90
2023-08-04T11:05:50.043Z,6.10
2023-08-04T11:08:22.946Z,5.70
2023-08-04T11:10:53.778Z,5.30
2023-08-04T11:13:41.261Z,7.10
2023-08-04T11:16:37.433Z,5.50
2023-08-04T11:19:19.009Z,5.50
2023-08-04T11:21:47.654Z,6.20
2023-08-04T11:27:33.554Z,6.00
2023-08-04T11:30:26.986Z,6.90
2023-08-04T11:33:44.741Z,7.20
2023-08-04T11:36:36.480Z,5.70
2023-08-04T11:39:08.745Z,8.30
2023-08-04T11:51:27.450Z,6.50
2023-08-04T11:55:22.988Z,5.30
2023-08-04T11:58:44.608Z,7.80
2023-08-04T12:02:06.753Z,5.60
2023-08-04T12:11:41.469Z,5.50
2023-08-04T12:20:12.982Z,5.70
2023-08-04T12:21:42.764Z,6.60
2023-08-04T12:27:57.436Z,6.60
2023-08-04T12:30:26.009Z,6.20
2023-08-04T12:36:15.285Z,6.80
2023-08-04T12:38:49.490Z,7.20
2023-08-04T12:41:20.681Z,7.40
2023-08-04T12:45:04.053Z,6.60
2023-08-04T12:48:33.376Z,5.90
2023-08-04T12:51:30.676Z,7.20
2023-08-04T12:54:02.760Z,7.10
2023-08-04T12:57:49.346Z,7.70
2023-08-04T13:00:46.555Z,6.40
2023-08-04T13:03:14.967Z,7.40
2023-08-04T13:07:25.096Z,7.00
2023-08-04T13:10:20.185Z,7.40
2023-08-04T13:12:48.502Z,6.10
2023-08-04T13:15:17.239Z,6.50
2023-08-04T13:18:31.072Z,6.50
2023-08-04T13:21:19.984Z,8.10
2023-08-04T13:23:48.781Z,7.10
2023-08-04T13:29:31.532Z,7.30
2023-08-04T13:31:59.898Z,7.00
2023-08-04T13:34:43.368Z,6.60
2023-08-04T13:37:11.983Z,6.30
2023-08-04T13:39:46.491Z,6.40
2023-08-04T13:42:54.047Z,6.90
2023-08-04T13:45:50.470Z,6.20
2023-08-04T13:49:09.018Z,5.80
2023-08-04T13:56:48.945Z,6.90
2023-08-04T14:03:38.835Z,6.40
2023-08-04T14:07:11.046Z,7.20
2023-08-04T14:09:41.959Z,7.30
2023-08-04T14:12:11.810Z,7.30
2023-08-04T14:14:46.230Z,7.10
2023-08-04T14:17:15.613Z,7.40
2023-08-04T14:31:31.098Z,6.80
2023-08-04T14:38:46.292Z,9.00
2023-08-04T14:42:19.386Z,7.40
2023-08-04T14:44:50.784Z,8.60
2023-08-04T14:47:25.498Z,7.70
2023-08-04T14:50:42.238Z,8.30
2023-08-04T14:53:37.965Z,7.40
2023-08-04T14:57:20.791Z,6.90
2023-08-04T15:08:15.640Z,7.50
2023-08-04T15:10:51.948Z,7.30
2023-08-04T15:17:21.878Z,6.90
2023-08-04T15:26:09.426Z,6.00
2023-08-04T15:28:51.569Z,6.20
2023-08-04T15:31:47.103Z,5.50
2023-08-04T15:35:30.653Z,6.20
2023-08-04T15:38:09.934Z,5.10
2023-08-04T15:41:28.789Z,5.90
2023-08-04T15:44:47.401Z,6.00
2023-08-04T15:47:17.713Z,5.70
2023-08-04T15:49:47.442Z,6.70
2023-08-04T15:54:14.588Z,6.60
2023-08-04T16:01:11.895Z,6.30
2023-08-04T16:04:12.456Z,6.70
2023-08-04T16:07:28.031Z,6.00
2023-08-04T16:17:38.608Z,6.90
2023-08-04T16:21:24.820Z,6.40
2023-08-04T16:24:20.080Z,6.60
2023-08-04T16:26:48.923Z,5.80
2023-08-04T16:29:21.217Z,6.50
2023-08-04T16:35:59.762Z,6.40
2023-08-04T16:38:28.362Z,6.50
2023-08-04T16:41:07.412Z,6.10
2023-08-04T16:43:46.070Z,6.40
2023-08-04T16:46:16.267Z,6.60
2023-08-04T16:51:52.187Z,6.50
2023-08-04T16:54:29.342Z,6.30
2023-08-04T16:56:57.613Z,7.00
2023-08-04T16:59:29.064Z,5.70
2023-08-04T17:01:57.351Z,5.30
2023-08-04T17:45:03.569Z,8.50
2023-08-04T17:55:10.316Z,8.80
2023-08-04T17:58:05.335Z,8.50
2023-08-04T18:00:36.402Z,9.50
2023-08-04T18:03:05.015Z,8.30
2023-08-04T18:16:05.153Z,9.40
2023-08-04T18:18:33.820Z,9.20
2023-08-04T18:26:12.717Z,10.30
2023-08-04T18:28:41.116Z,9.30
2023-08-04T18:34:04.191Z,11.70
2023-08-04T18:43:19.474Z,12.40
2023-08-04T18:46:32.940Z,11.90
2023-08-04T18:49:15.066Z,12.30
2023-08-04T18:56:02.290Z,12.80
2023-08-04T18:58:55.486Z,13.30
2023-08-04T19:08:14.607Z,12.20
2023-08-04T19:10:52.315Z,13.70
2023-08-04T19:17:07.418Z,14.00
2023-08-04T19:19:35.821Z,12.90
2023-08-04T19:22:29.170Z,13.60
2023-08-04T19:25:16.117Z,13.90
2023-08-04T19:27:44.424Z,13.20
2023-08-04T19:30:15.487Z,13.60
2023-08-04T19:32:45.577Z,13.50
2023-08-04T19:35:14.181Z,13.20
2023-08-04T19:37:44.976Z,12.90
2023-08-04T19:40:27.368Z,13.10
2023-08-04T19:42:55.796Z,12.40
2023-08-04T19:45:25.868Z,12.20
2023-08-04T19:47:59.777Z,12.40
2023-08-04T19:50:45.154Z,12.50
2023-08-04T19:54:03.371Z,12.80
2023-08-04T20:00:19.291Z,11.40
2023-08-04T20:02:49.167Z,10.90
2023-08-04T20:06:08.687Z,11.30
2023-08-04T20:08:37.184Z,11.20
2023-08-04T20:11:07.796Z,10.90
2023-08-04T20:13:37.249Z,10.70
2023-08-04T20:16:31.597Z,10.40
2023-08-04T20:19:00.305Z,10.10
2023-08-04T20:28:21.316Z,10.40
2023-08-04T20:31:08.076Z,9.50
2023-08-04T20:33:36.588Z,10.60
2023-08-04T20:36:06.414Z,10.20
2023-08-04T20:38:36.842Z,11.20
2023-08-04T20:41:12.923Z,11.00
2023-08-04T20:43:42.991Z,10.20
2023-08-04T20:46:14.146Z,9.60
2023-08-04T20:48:43.393Z,10.00
2023-08-04T20:51:11.738Z,10.40
2023-08-04T20:53:43.204Z,9.40
2023-08-04T20:56:13.604Z,9.90
2023-08-04T20:58:41.903Z,10.60
2023-08-04T21:01:11.053Z,9.70
2023-08-04T21:03:42.448Z,10.10
2023-08-04T21:06:11.251Z,9.70
2023-08-04T21:08:39.517Z,9.40
2023-08-04T21:11:08.654Z,9.90
2023-08-04T21:13:37.173Z,10.00
2023-08-04T21:26:08.363Z,9.30
2023-08-04T21:28:36.688Z,9.90
2023-08-04T21:31:05.123Z,9.00
2023-08-04T21:33:33.448Z,8.20
2023-08-04T21:36:03.139Z,9.00
2023-08-04T21:38:34.573Z,7.70
2023-08-04T21:41:07.732Z,8.90
2023-08-04T21:43:36.557Z,8.70
2023-08-04T21:46:11.172Z,8.70
2023-08-04T21:48:42.758Z,6.60
2023-08-04T21:51:15.953Z,7.80
2023-08-04T21:53:45.676Z,7.30
2023-08-04T21:56:14.295Z,6.90
2023-08-04T21:59:07.952Z,7.10
2023-08-04T22:01:36.165Z,7.70
2023-08-04T22:04:05.340Z,7.20
2023-08-04T22:06:33.758Z,7.30
2023-08-04T22:09:03.037Z,7.20
2023-08-04T22:14:35.663Z,8.20
2023-08-04T22:17:04.324Z,7.30
2023-08-04T22:22:17.535Z,7.30
2023-08-04T22:24:45.880Z,7.40
2023-08-04T22:27:16.362Z,6.90
2023-08-04T22:29:44.855Z,7.50
2023-08-04T22:32:13.484Z,7.00
2023-08-04T22:34:41.912Z,7.70
2023-08-04T22:37:10.252Z,7.70
2023-08-04T22:39:38.515Z,7.40
2023-08-04T22:42:06.777Z,7.50
2023-08-04T22:44:34.971Z,7.20
2023-08-04T22:47:05.002Z,6.60
2023-08-04T22:49:33.377Z,6.40
2023-08-04T22:52:01.756Z,7.00
2023-08-04T22:54:33.337Z,6.20
2023-08-04T22:57:05.163Z,6.70
2023-08-04T22:59:34.172Z,7.20
2023-08-04T23:02:02.490Z,7.00
2023-08-04T23:04:30.838Z,6.40
2023-08-04T23:06:59.752Z,6.60
2023-08-04T23:09:28.620Z,6.50
2023-08-04T23:11:58.409Z,6.00
2023-08-04T23:14:26.752Z,7.10
2023-08-04T23:16:55.292Z,6.70
2023-08-04T23:19:24.903Z,6.80
2023-08-04T23:21:53.214Z,7.00
2023-08-04T23:24:21.593Z,6.10
2023-08-04T23:26:50.833Z,7.20
2023-08-04T23:29:21.176Z,8.10
2023-08-04T23:31:49.687Z,6.70
2023-08-04T23:34:17.951Z,7.00
2023-08-04T23:36:49.049Z,6.70
2023-08-04T23:39:17.732Z,7.30
2023-08-04T23:41:46.216Z,7.10
2023-08-04T23:44:14.474Z,6.90
2023-08-04T23:46:43.646Z,6.90
2023-08-04T23:49:16.898Z,6.70
2023-08-04T23:51:49.195Z,6.50
2023-08-04T23:54:17.341Z,7.30
2023-08-04T23:56:46.689Z,7.10
2023-08-04T23:59:15.171Z,6.50
